sensor_id;sensor_type;location;lat;lon;timestamp;P1;durP1;ratioP1;P2;durP2;ratioP2
34200;SDS011;20469;55.638;37.670;2023-04-24T00:01:29;29.52;;;10.13;;
34200;SDS011;20469;55.638;37.670;2023-04-24T00:03:57;31.90;;;9.80;;
34200;SDS011;20469;55.638;37.670;2023-04-24T00:06:26;29.10;;;9.32;;
34200;SDS011;20469;55.638;37.670;2023-04-24T00:09:00;29.77;;;10.00;;
34200;SDS011;20469;55.638;37.670;2023-04-24T00:11:27;35.78;;;10.77;;
34200;SDS011;20469;55.638;37.670;2023-04-24T00:13:55;32.60;;;11.05;;
34200;SDS011;20469;55.638;37.670;2023-04-24T00:16:23;31.40;;;10.70;;
34200;SDS011;20469;55.638;37.670;2023-04-24T00:18:50;47.22;;;11.38;;
34200;SDS011;20469;55.638;37.670;2023-04-24T00:21:19;37.20;;;10.70;;
34200;SDS011;20469;55.638;37.670;2023-04-24T00:23:47;33.35;;;10.95;;
34200;SDS011;20469;55.638;37.670;2023-04-24T00:26:14;34.15;;;10.75;;
34200;SDS011;20469;55.638;37.670;2023-04-24T00:28:42;40.33;;;11.35;;
34200;SDS011;20469;55.638;37.670;2023-04-24T00:31:09;40.58;;;11.90;;
34200;SDS011;20469;55.638;37.670;2023-04-24T00:33:36;45.58;;;10.50;;
34200;SDS011;20469;55.638;37.670;2023-04-24T00:36:04;46.17;;;12.32;;
34200;SDS011;20469;55.638;37.670;2023-04-24T00:38:31;37.50;;;10.55;;
34200;SDS011;20469;55.638;37.670;2023-04-24T00:40:58;34.42;;;10.98;;
34200;SDS011;20469;55.638;37.670;2023-04-24T00:43:26;38.05;;;11.07;;
34200;SDS011;20469;55.638;37.670;2023-04-24T00:45:53;31.83;;;9.95;;
34200;SDS011;20469;55.638;37.670;2023-04-24T00:48:21;25.77;;;9.18;;
34200;SDS011;20469;55.638;37.670;2023-04-24T00:50:49;26.05;;;9.43;;
34200;SDS011;20469;55.638;37.670;2023-04-24T00:53:16;29.23;;;9.20;;
34200;SDS011;20469;55.638;37.670;2023-04-24T00:55:44;28.92;;;10.32;;
34200;SDS011;20469;55.638;37.670;2023-04-24T00:58:12;33.47;;;9.77;;
34200;SDS011;20469;55.638;37.670;2023-04-24T01:00:39;24.85;;;8.57;;
34200;SDS011;20469;55.638;37.670;2023-04-24T01:03:07;30.38;;;9.45;;
34200;SDS011;20469;55.638;37.670;2023-04-24T01:05:35;31.08;;;9.45;;
34200;SDS011;20469;55.638;37.670;2023-04-24T01:08:02;23.30;;;8.65;;
34200;SDS011;20469;55.638;37.670;2023-04-24T01:10:29;20.05;;;7.93;;
34200;SDS011;20469;55.638;37.670;2023-04-24T01:12:59;24.08;;;10.48;;
34200;SDS011;20469;55.638;37.670;2023-04-24T01:15:26;17.00;;;8.90;;
34200;SDS011;20469;55.638;37.670;2023-04-24T01:17:54;17.75;;;8.60;;
34200;SDS011;20469;55.638;37.670;2023-04-24T01:20:21;20.42;;;9.52;;
34200;SDS011;20469;55.638;37.670;2023-04-24T01:22:49;24.75;;;9.25;;
34200;SDS011;20469;55.638;37.670;2023-04-24T01:25:16;26.35;;;9.50;;
34200;SDS011;20469;55.638;37.670;2023-04-24T01:27:43;29.48;;;9.80;;
34200;SDS011;20469;55.638;37.670;2023-04-24T01:30:11;19.40;;;9.27;;
34200;SDS011;20469;55.638;37.670;2023-04-24T01:32:39;23.02;;;9.68;;
34200;SDS011;20469;55.638;37.670;2023-04-24T01:35:11;21.67;;;9.27;;
34200;SDS011;20469;55.638;37.670;2023-04-24T01:37:38;19.02;;;8.88;;
34200;SDS011;20469;55.638;37.670;2023-04-24T01:40:06;28.60;;;10.15;;
34200;SDS011;20469;55.638;37.670;2023-04-24T01:42:34;32.38;;;10.77;;
34200;SDS011;20469;55.638;37.670;2023-04-24T01:45:02;30.73;;;10.35;;
34200;SDS011;20469;55.638;37.670;2023-04-24T01:47:31;27.60;;;9.73;;
34200;SDS011;20469;55.638;37.670;2023-04-24T01:50:00;21.88;;;9.88;;
34200;SDS011;20469;55.638;37.670;2023-04-24T01:52:28;30.38;;;10.07;;
34200;SDS011;20469;55.638;37.670;2023-04-24T01:54:59;18.38;;;9.98;;
34200;SDS011;20469;55.638;37.670;2023-04-24T01:57:29;28.70;;;10.68;;
34200;SDS011;20469;55.638;37.670;2023-04-24T01:59:57;30.33;;;9.82;;
34200;SDS011;20469;55.638;37.670;2023-04-24T02:02:24;30.45;;;10.70;;
34200;SDS011;20469;55.638;37.670;2023-04-24T02:04:54;24.67;;;10.45;;
34200;SDS011;20469;55.638;37.670;2023-04-24T02:07:21;21.77;;;10.18;;
34200;SDS011;20469;55.638;37.670;2023-04-24T02:09:49;27.83;;;10.20;;
34200;SDS011;20469;55.638;37.670;2023-04-24T02:12:16;29.85;;;10.80;;
34200;SDS011;20469;55.638;37.670;2023-04-24T02:14:43;24.83;;;10.48;;
34200;SDS011;20469;55.638;37.670;2023-04-24T02:17:11;25.63;;;10.27;;
34200;SDS011;20469;55.638;37.670;2023-04-24T02:19:39;23.67;;;10.95;;
34200;SDS011;20469;55.638;37.670;2023-04-24T02:22:07;25.92;;;10.65;;
34200;SDS011;20469;55.638;37.670;2023-04-24T02:24:34;22.30;;;10.45;;
34200;SDS011;20469;55.638;37.670;2023-04-24T02:27:01;31.42;;;11.48;;
34200;SDS011;20469;55.638;37.670;2023-04-24T02:29:29;20.00;;;9.73;;
34200;SDS011;20469;55.638;37.670;2023-04-24T02:31:56;29.35;;;12.18;;
34200;SDS011;20469;55.638;37.670;2023-04-24T02:34:23;19.58;;;9.90;;
34200;SDS011;20469;55.638;37.670;2023-04-24T02:36:51;25.83;;;10.65;;
34200;SDS011;20469;55.638;37.670;2023-04-24T02:39:20;20.85;;;10.27;;
34200;SDS011;20469;55.638;37.670;2023-04-24T02:41:47;21.85;;;9.88;;
34200;SDS011;20469;55.638;37.670;2023-04-24T02:44:14;22.05;;;10.43;;
34200;SDS011;20469;55.638;37.670;2023-04-24T02:46:41;19.92;;;10.23;;
34200;SDS011;20469;55.638;37.670;2023-04-24T02:49:08;16.85;;;9.77;;
34200;SDS011;20469;55.638;37.670;2023-04-24T02:51:36;16.05;;;9.40;;
34200;SDS011;20469;55.638;37.670;2023-04-24T02:54:07;18.23;;;9.80;;
34200;SDS011;20469;55.638;37.670;2023-04-24T02:56:38;19.55;;;9.80;;
34200;SDS011;20469;55.638;37.670;2023-04-24T02:59:05;17.15;;;8.82;;
34200;SDS011;20469;55.638;37.670;2023-04-24T03:01:32;14.63;;;8.90;;
34200;SDS011;20469;55.638;37.670;2023-04-24T03:04:00;19.45;;;9.73;;
34200;SDS011;20469;55.638;37.670;2023-04-24T03:06:28;18.08;;;9.68;;
34200;SDS011;20469;55.638;37.670;2023-04-24T03:08:55;16.17;;;9.85;;
34200;SDS011;20469;55.638;37.670;2023-04-24T03:11:22;21.52;;;10.07;;
34200;SDS011;20469;55.638;37.670;2023-04-24T03:13:49;19.95;;;10.30;;
34200;SDS011;20469;55.638;37.670;2023-04-24T03:16:16;22.45;;;9.90;;
34200;SDS011;20469;55.638;37.670;2023-04-24T03:18:44;19.52;;;10.18;;
34200;SDS011;20469;55.638;37.670;2023-04-24T03:21:11;17.55;;;9.88;;
34200;SDS011;20469;55.638;37.670;2023-04-24T03:23:38;19.23;;;10.10;;
34200;SDS011;20469;55.638;37.670;2023-04-24T03:26:05;18.77;;;9.98;;
34200;SDS011;20469;55.638;37.670;2023-04-24T03:28:33;19.92;;;9.20;;
34200;SDS011;20469;55.638;37.670;2023-04-24T03:33:47;18.67;;;10.02;;
34200;SDS011;20469;55.638;37.670;2023-04-24T03:36:14;18.92;;;10.02;;
34200;SDS011;20469;55.638;37.670;2023-04-24T03:38:42;16.08;;;9.63;;
34200;SDS011;20469;55.638;37.670;2023-04-24T03:41:09;18.70;;;8.93;;
34200;SDS011;20469;55.638;37.670;2023-04-24T03:43:36;20.13;;;9.75;;
34200;SDS011;20469;55.638;37.670;2023-04-24T03:46:03;17.33;;;9.38;;
34200;SDS011;20469;55.638;37.670;2023-04-24T03:48:31;17.42;;;8.82;;
34200;SDS011;20469;55.638;37.670;2023-04-24T03:50:58;17.83;;;10.43;;
34200;SDS011;20469;55.638;37.670;2023-04-24T03:53:25;16.90;;;9.40;;
34200;SDS011;20469;55.638;37.670;2023-04-24T03:55:53;16.95;;;9.43;;
34200;SDS011;20469;55.638;37.670;2023-04-24T03:58:20;16.58;;;9.43;;
34200;SDS011;20469;55.638;37.670;2023-04-24T04:00:47;18.83;;;9.98;;
34200;SDS011;20469;55.638;37.670;2023-04-24T04:03:14;15.55;;;8.98;;
34200;SDS011;20469;55.638;37.670;2023-04-24T04:05:42;17.15;;;9.73;;
34200;SDS011;20469;55.638;37.670;2023-04-24T04:08:09;19.48;;;9.82;;
34200;SDS011;20469;55.638;37.670;2023-04-24T04:10:36;16.00;;;8.23;;
34200;SDS011;20469;55.638;37.670;2023-04-24T04:13:04;22.58;;;9.10;;
34200;SDS011;20469;55.638;37.670;2023-04-24T04:15:32;16.70;;;9.55;;
34200;SDS011;20469;55.638;37.670;2023-04-24T04:18:00;15.32;;;9.00;;
34200;SDS011;20469;55.638;37.670;2023-04-24T04:20:27;16.85;;;9.52;;
34200;SDS011;20469;55.638;37.670;2023-04-24T04:22:54;19.20;;;8.88;;
34200;SDS011;20469;55.638;37.670;2023-04-24T04:25:21;18.48;;;9.00;;
34200;SDS011;20469;55.638;37.670;2023-04-24T04:27:49;16.08;;;9.27;;
34200;SDS011;20469;55.638;37.670;2023-04-24T04:30:17;19.60;;;9.35;;
34200;SDS011;20469;55.638;37.670;2023-04-24T04:32:44;13.48;;;8.82;;
34200;SDS011;20469;55.638;37.670;2023-04-24T04:35:12;16.08;;;8.80;;
34200;SDS011;20469;55.638;37.670;2023-04-24T04:37:39;19.25;;;8.82;;
34200;SDS011;20469;55.638;37.670;2023-04-24T04:40:06;13.70;;;8.57;;
34200;SDS011;20469;55.638;37.670;2023-04-24T04:42:38;17.83;;;9.02;;
34200;SDS011;20469;55.638;37.670;2023-04-24T04:45:07;15.85;;;8.55;;
34200;SDS011;20469;55.638;37.670;2023-04-24T04:47:38;16.35;;;8.07;;
34200;SDS011;20469;55.638;37.670;2023-04-24T04:50:06;14.52;;;8.50;;
34200;SDS011;20469;55.638;37.670;2023-04-24T04:52:33;18.85;;;8.30;;
34200;SDS011;20469;55.638;37.670;2023-04-24T04:55:00;16.67;;;8.90;;
34200;SDS011;20469;55.638;37.670;2023-04-24T04:57:29;15.57;;;8.27;;
34200;SDS011;20469;55.638;37.670;2023-04-24T04:59:57;15.73;;;8.98;;
34200;SDS011;20469;55.638;37.670;2023-04-24T05:02:24;15.98;;;8.75;;
34200;SDS011;20469;55.638;37.670;2023-04-24T05:04:52;17.05;;;9.15;;
34200;SDS011;20469;55.638;37.670;2023-04-24T05:07:19;18.45;;;8.40;;
34200;SDS011;20469;55.638;37.670;2023-04-24T05:09:46;18.65;;;9.18;;
34200;SDS011;20469;55.638;37.670;2023-04-24T05:12:13;18.30;;;9.40;;
34200;SDS011;20469;55.638;37.670;2023-04-24T05:14:41;17.73;;;9.07;;
34200;SDS011;20469;55.638;37.670;2023-04-24T05:17:08;20.20;;;10.00;;
34200;SDS011;20469;55.638;37.670;2023-04-24T05:19:35;25.27;;;10.95;;
34200;SDS011;20469;55.638;37.670;2023-04-24T05:22:04;19.05;;;9.88;;
34200;SDS011;20469;55.638;37.670;2023-04-24T05:24:33;23.13;;;10.10;;
34200;SDS011;20469;55.638;37.670;2023-04-24T05:27:01;17.33;;;10.00;;
34200;SDS011;20469;55.638;37.670;2023-04-24T05:29:29;24.98;;;11.32;;
34200;SDS011;20469;55.638;37.670;2023-04-24T05:31:57;23.33;;;10.52;;
34200;SDS011;20469;55.638;37.670;2023-04-24T05:34:25;18.63;;;10.30;;
34200;SDS011;20469;55.638;37.670;2023-04-24T05:36:52;20.48;;;10.02;;
34200;SDS011;20469;55.638;37.670;2023-04-24T05:39:19;24.55;;;10.32;;
34200;SDS011;20469;55.638;37.670;2023-04-24T05:41:46;24.08;;;11.02;;
34200;SDS011;20469;55.638;37.670;2023-04-24T05:44:14;23.35;;;10.77;;
34200;SDS011;20469;55.638;37.670;2023-04-24T05:46:41;25.17;;;10.73;;
34200;SDS011;20469;55.638;37.670;2023-04-24T05:49:08;29.25;;;10.65;;
34200;SDS011;20469;55.638;37.670;2023-04-24T05:51:35;22.25;;;10.63;;
34200;SDS011;20469;55.638;37.670;2023-04-24T05:54:02;24.55;;;9.95;;
34200;SDS011;20469;55.638;37.670;2023-04-24T05:56:30;22.00;;;10.32;;
34200;SDS011;20469;55.638;37.670;2023-04-24T05:58:57;25.75;;;11.02;;
34200;SDS011;20469;55.638;37.670;2023-04-24T06:01:24;22.40;;;10.13;;
34200;SDS011;20469;55.638;37.670;2023-04-24T06:03:51;21.45;;;10.23;;
34200;SDS011;20469;55.638;37.670;2023-04-24T06:06:20;20.98;;;10.27;;
34200;SDS011;20469;55.638;37.670;2023-04-24T06:08:47;21.75;;;10.20;;
34200;SDS011;20469;55.638;37.670;2023-04-24T06:11:14;15.82;;;9.20;;
34200;SDS011;20469;55.638;37.670;2023-04-24T06:13:42;23.10;;;10.77;;
34200;SDS011;20469;55.638;37.670;2023-04-24T06:16:09;22.58;;;10.88;;
34200;SDS011;20469;55.638;37.670;2023-04-24T06:18:36;19.55;;;9.63;;
34200;SDS011;20469;55.638;37.670;2023-04-24T06:21:03;21.48;;;9.75;;
34200;SDS011;20469;55.638;37.670;2023-04-24T06:23:31;15.25;;;8.45;;
34200;SDS011;20469;55.638;37.670;2023-04-24T06:25:59;15.98;;;9.20;;
34200;SDS011;20469;55.638;37.670;2023-04-24T06:28:26;20.33;;;8.30;;
34200;SDS011;20469;55.638;37.670;2023-04-24T06:30:53;16.10;;;8.80;;
34200;SDS011;20469;55.638;37.670;2023-04-24T06:33:39;20.90;;;8.75;;
34200;SDS011;20469;55.638;37.670;2023-04-24T06:36:07;16.15;;;8.23;;
34200;SDS011;20469;55.638;37.670;2023-04-24T06:38:34;20.77;;;9.20;;
34200;SDS011;20469;55.638;37.670;2023-04-24T06:41:01;20.77;;;9.02;;
34200;SDS011;20469;55.638;37.670;2023-04-24T06:43:49;16.92;;;8.73;;
34200;SDS011;20469;55.638;37.670;2023-04-24T06:46:16;14.77;;;8.77;;
34200;SDS011;20469;55.638;37.670;2023-04-24T06:48:43;15.93;;;7.63;;
34200;SDS011;20469;55.638;37.670;2023-04-24T06:51:11;16.60;;;8.55;;
34200;SDS011;20469;55.638;37.670;2023-04-24T06:53:38;16.73;;;7.20;;
34200;SDS011;20469;55.638;37.670;2023-04-24T06:56:05;17.20;;;7.75;;
34200;SDS011;20469;55.638;37.670;2023-04-24T06:58:32;17.92;;;8.02;;
34200;SDS011;20469;55.638;37.670;2023-04-24T07:00:59;16.75;;;7.60;;
34200;SDS011;20469;55.638;37.670;2023-04-24T07:03:46;18.00;;;7.65;;
34200;SDS011;20469;55.638;37.670;2023-04-24T07:06:13;20.35;;;7.88;;
34200;SDS011;20469;55.638;37.670;2023-04-24T07:08:42;15.93;;;7.22;;
34200;SDS011;20469;55.638;37.670;2023-04-24T07:11:10;15.55;;;7.32;;
34200;SDS011;20469;55.638;37.670;2023-04-24T07:13:37;9.57;;;6.07;;
34200;SDS011;20469;55.638;37.670;2023-04-24T07:16:08;13.60;;;6.75;;
34200;SDS011;20469;55.638;37.670;2023-04-24T07:18:36;15.57;;;6.30;;
34200;SDS011;20469;55.638;37.670;2023-04-24T07:21:03;10.70;;;5.47;;
34200;SDS011;20469;55.638;37.670;2023-04-24T07:23:30;9.32;;;5.80;;
34200;SDS011;20469;55.638;37.670;2023-04-24T07:25:58;12.82;;;6.07;;
34200;SDS011;20469;55.638;37.670;2023-04-24T07:28:25;13.90;;;5.95;;
34200;SDS011;20469;55.638;37.670;2023-04-24T07:30:52;8.10;;;5.63;;
34200;SDS011;20469;55.638;37.670;2023-04-24T07:33:20;8.75;;;4.90;;
34200;SDS011;20469;55.638;37.670;2023-04-24T07:35:47;11.90;;;5.78;;
34200;SDS011;20469;55.638;37.670;2023-04-24T07:38:15;11.93;;;5.20;;
34200;SDS011;20469;55.638;37.670;2023-04-24T07:40:42;8.77;;;5.18;;
34200;SDS011;20469;55.638;37.670;2023-04-24T07:43:11;11.07;;;4.68;;
34200;SDS011;20469;55.638;37.670;2023-04-24T07:45:38;10.75;;;5.07;;
34200;SDS011;20469;55.638;37.670;2023-04-24T07:48:06;9.43;;;4.63;;
34200;SDS011;20469;55.638;37.670;2023-04-24T07:50:35;8.98;;;4.50;;
34200;SDS011;20469;55.638;37.670;2023-04-24T07:53:03;11.02;;;5.22;;
34200;SDS011;20469;55.638;37.670;2023-04-24T07:55:30;9.93;;;5.43;;
34200;SDS011;20469;55.638;37.670;2023-04-24T07:57:57;10.63;;;4.93;;
34200;SDS011;20469;55.638;37.670;2023-04-24T08:00:24;13.82;;;4.55;;
34200;SDS011;20469;55.638;37.670;2023-04-24T08:02:52;6.45;;;4.15;;
34200;SDS011;20469;55.638;37.670;2023-04-24T08:05:20;6.72;;;4.10;;
34200;SDS011;20469;55.638;37.670;2023-04-24T08:07:47;6.72;;;3.88;;
34200;SDS011;20469;55.638;37.670;2023-04-24T08:10:33;9.50;;;4.00;;
34200;SDS011;20469;55.638;37.670;2023-04-24T08:13:00;4.78;;;3.83;;
34200;SDS011;20469;55.638;37.670;2023-04-24T08:15:28;6.05;;;4.38;;
34200;SDS011;20469;55.638;37.670;2023-04-24T08:17:55;5.88;;;4.18;;
34200;SDS011;20469;55.638;37.670;2023-04-24T08:20:24;8.00;;;3.92;;
34200;SDS011;20469;55.638;37.670;2023-04-24T08:22:51;7.93;;;4.18;;
34200;SDS011;20469;55.638;37.670;2023-04-24T08:25:18;6.07;;;4.10;;
34200;SDS011;20469;55.638;37.670;2023-04-24T08:27:46;6.97;;;4.20;;
34200;SDS011;20469;55.638;37.670;2023-04-24T08:30:13;6.50;;;3.90;;
34200;SDS011;20469;55.638;37.670;2023-04-24T08:32:40;7.05;;;3.50;;
34200;SDS011;20469;55.638;37.670;2023-04-24T08:35:08;8.98;;;3.90;;
34200;SDS011;20469;55.638;37.670;2023-04-24T08:37:36;5.13;;;3.40;;
34200;SDS011;20469;55.638;37.670;2023-04-24T08:40:06;7.68;;;3.55;;
34200;SDS011;20469;55.638;37.670;2023-04-24T08:42:39;5.78;;;3.97;;
34200;SDS011;20469;55.638;37.670;2023-04-24T08:45:12;5.10;;;3.67;;
34200;SDS011;20469;55.638;37.670;2023-04-24T08:47:40;6.35;;;3.80;;
34200;SDS011;20469;55.638;37.670;2023-04-24T08:52:55;7.45;;;4.13;;
34200;SDS011;20469;55.638;37.670;2023-04-24T08:55:23;8.07;;;3.85;;
34200;SDS011;20469;55.638;37.670;2023-04-24T08:57:52;6.70;;;4.32;;
34200;SDS011;20469;55.638;37.670;2023-04-24T09:00:20;7.13;;;3.78;;
34200;SDS011;20469;55.638;37.670;2023-04-24T09:02:48;4.82;;;3.63;;
34200;SDS011;20469;55.638;37.670;2023-04-24T09:05:17;5.20;;;3.90;;
34200;SDS011;20469;55.638;37.670;2023-04-24T09:07:54;6.75;;;4.00;;
34200;SDS011;20469;55.638;37.670;2023-04-24T09:10:25;11.30;;;3.95;;
34200;SDS011;20469;55.638;37.670;2023-04-24T09:12:53;10.45;;;4.20;;
34200;SDS011;20469;55.638;37.670;2023-04-24T09:15:21;12.75;;;4.28;;
34200;SDS011;20469;55.638;37.670;2023-04-24T09:17:48;6.68;;;4.18;;
34200;SDS011;20469;55.638;37.670;2023-04-24T09:20:16;8.85;;;4.00;;
34200;SDS011;20469;55.638;37.670;2023-04-24T09:22:43;7.65;;;4.00;;
34200;SDS011;20469;55.638;37.670;2023-04-24T09:25:12;4.57;;;4.03;;
34200;SDS011;20469;55.638;37.670;2023-04-24T09:27:42;5.32;;;3.97;;
34200;SDS011;20469;55.638;37.670;2023-04-24T09:30:11;11.15;;;3.97;;
34200;SDS011;20469;55.638;37.670;2023-04-24T09:32:39;6.38;;;3.67;;
34200;SDS011;20469;55.638;37.670;2023-04-24T09:37:46;8.10;;;3.70;;
34200;SDS011;20469;55.638;37.670;2023-04-24T09:40:16;6.13;;;3.60;;
34200;SDS011;20469;55.638;37.670;2023-04-24T09:42:46;6.03;;;3.78;;
34200;SDS011;20469;55.638;37.670;2023-04-24T09:45:20;4.72;;;3.80;;
34200;SDS011;20469;55.638;37.670;2023-04-24T09:47:51;6.18;;;3.78;;
34200;SDS011;20469;55.638;37.670;2023-04-24T09:50:22;5.00;;;3.58;;
34200;SDS011;20469;55.638;37.670;2023-04-24T09:52:56;5.70;;;3.55;;
34200;SDS011;20469;55.638;37.670;2023-04-24T09:55:42;6.80;;;3.80;;
34200;SDS011;20469;55.638;37.670;2023-04-24T09:58:12;6.97;;;3.55;;
34200;SDS011;20469;55.638;37.670;2023-04-24T10:00:39;5.13;;;3.58;;
34200;SDS011;20469;55.638;37.670;2023-04-24T10:03:07;9.30;;;3.97;;
34200;SDS011;20469;55.638;37.670;2023-04-24T10:05:35;4.15;;;3.42;;
34200;SDS011;20469;55.638;37.670;2023-04-24T10:08:04;5.63;;;3.42;;
34200;SDS011;20469;55.638;37.670;2023-04-24T10:10:41;6.78;;;3.70;;
34200;SDS011;20469;55.638;37.670;2023-04-24T10:13:09;5.50;;;3.25;;
34200;SDS011;20469;55.638;37.670;2023-04-24T10:15:38;6.00;;;3.60;;
34200;SDS011;20469;55.638;37.670;2023-04-24T10:18:07;16.88;;;3.88;;
34200;SDS011;20469;55.638;37.670;2023-04-24T10:20:36;8.52;;;3.50;;
34200;SDS011;20469;55.638;37.670;2023-04-24T10:23:05;8.25;;;3.45;;
34200;SDS011;20469;55.638;37.670;2023-04-24T10:25:33;9.73;;;3.60;;
34200;SDS011;20469;55.638;37.670;2023-04-24T10:28:01;9.88;;;3.60;;
34200;SDS011;20469;55.638;37.670;2023-04-24T10:30:33;6.53;;;3.47;;
34200;SDS011;20469;55.638;37.670;2023-04-24T10:33:04;4.90;;;3.55;;
34200;SDS011;20469;55.638;37.670;2023-04-24T10:35:40;9.38;;;3.67;;
34200;SDS011;20469;55.638;37.670;2023-04-24T10:38:12;5.60;;;3.58;;
34200;SDS011;20469;55.638;37.670;2023-04-24T10:40:43;6.53;;;3.50;;
34200;SDS011;20469;55.638;37.670;2023-04-24T10:43:10;9.35;;;4.53;;
34200;SDS011;20469;55.638;37.670;2023-04-24T10:46:04;4.45;;;3.20;;
34200;SDS011;20469;55.638;37.670;2023-04-24T10:48:33;19.85;;;14.80;;
34200;SDS011;20469;55.638;37.670;2023-04-24T10:51:00;31.50;;;23.10;;
34200;SDS011;20469;55.638;37.670;2023-04-24T10:53:29;4.30;;;3.22;;
34200;SDS011;20469;55.638;37.670;2023-04-24T10:56:04;6.55;;;3.55;;
34200;SDS011;20469;55.638;37.670;2023-04-24T10:58:37;4.15;;;3.38;;
34200;SDS011;20469;55.638;37.670;2023-04-24T11:01:24;8.05;;;6.90;;
34200;SDS011;20469;55.638;37.670;2023-04-24T11:03:56;4.03;;;3.15;;
34200;SDS011;20469;55.638;37.670;2023-04-24T11:06:43;4.28;;;3.53;;
34200;SDS011;20469;55.638;37.670;2023-04-24T11:09:10;11.98;;;6.90;;
34200;SDS011;20469;55.638;37.670;2023-04-24T11:11:46;5.53;;;3.40;;
34200;SDS011;20469;55.638;37.670;2023-04-24T11:14:14;4.40;;;3.10;;
34200;SDS011;20469;55.638;37.670;2023-04-24T11:16:45;4.35;;;3.55;;
34200;SDS011;20469;55.638;37.670;2023-04-24T11:19:23;6.80;;;4.45;;
34200;SDS011;20469;55.638;37.670;2023-04-24T11:24:30;7.57;;;3.80;;
34200;SDS011;20469;55.638;37.670;2023-04-24T11:27:06;5.95;;;3.50;;
34200;SDS011;20469;55.638;37.670;2023-04-24T11:29:58;4.80;;;3.60;;
34200;SDS011;20469;55.638;37.670;2023-04-24T11:32:38;5.07;;;3.63;;
34200;SDS011;20469;55.638;37.670;2023-04-24T11:35:08;5.30;;;3.60;;
34200;SDS011;20469;55.638;37.670;2023-04-24T11:37:43;4.65;;;3.30;;
34200;SDS011;20469;55.638;37.670;2023-04-24T11:40:21;5.93;;;3.58;;
34200;SDS011;20469;55.638;37.670;2023-04-24T11:42:54;5.35;;;2.97;;
34200;SDS011;20469;55.638;37.670;2023-04-24T11:45:23;4.47;;;3.15;;
34200;SDS011;20469;55.638;37.670;2023-04-24T11:47:51;5.32;;;3.20;;
34200;SDS011;20469;55.638;37.670;2023-04-24T11:50:21;7.43;;;3.08;;
34200;SDS011;20469;55.638;37.670;2023-04-24T11:52:50;5.35;;;3.05;;
34200;SDS011;20469;55.638;37.670;2023-04-24T11:57:46;5.53;;;3.20;;
34200;SDS011;20469;55.638;37.670;2023-04-24T12:00:15;9.07;;;3.35;;
34200;SDS011;20469;55.638;37.670;2023-04-24T12:02:45;13.05;;;3.72;;
34200;SDS011;20469;55.638;37.670;2023-04-24T12:05:46;6.40;;;3.05;;
34200;SDS011;20469;55.638;37.670;2023-04-24T12:08:07;7.65;;;3.30;;
34200;SDS011;20469;55.638;37.670;2023-04-24T12:10:34;7.82;;;3.35;;
34200;SDS011;20469;55.638;37.670;2023-04-24T12:13:02;6.63;;;3.20;;
34200;SDS011;20469;55.638;37.670;2023-04-24T12:15:30;9.07;;;3.28;;
34200;SDS011;20469;55.638;37.670;2023-04-24T12:17:57;6.80;;;3.22;;
34200;SDS011;20469;55.638;37.670;2023-04-24T12:20:32;4.97;;;2.88;;
34200;SDS011;20469;55.638;37.670;2023-04-24T12:23:00;3.90;;;2.92;;
34200;SDS011;20469;55.638;37.670;2023-04-24T12:25:30;6.47;;;3.00;;
34200;SDS011;20469;55.638;37.670;2023-04-24T12:30:50;7.35;;;3.22;;
34200;SDS011;20469;55.638;37.670;2023-04-24T12:33:21;8.73;;;3.30;;
34200;SDS011;20469;55.638;37.670;2023-04-24T12:35:51;6.93;;;3.13;;
34200;SDS011;20469;55.638;37.670;2023-04-24T12:38:23;4.63;;;2.70;;
34200;SDS011;20469;55.638;37.670;2023-04-24T12:41:02;4.30;;;2.63;;
34200;SDS011;20469;55.638;37.670;2023-04-24T12:43:32;5.28;;;2.80;;
34200;SDS011;20469;55.638;37.670;2023-04-24T12:45:59;5.25;;;2.95;;
34200;SDS011;20469;55.638;37.670;2023-04-24T12:48:27;7.60;;;3.30;;
34200;SDS011;20469;55.638;37.670;2023-04-24T12:50:56;4.35;;;2.63;;
34200;SDS011;20469;55.638;37.670;2023-04-24T12:53:27;5.95;;;2.95;;
34200;SDS011;20469;55.638;37.670;2023-04-24T12:55:56;3.65;;;2.75;;
34200;SDS011;20469;55.638;37.670;2023-04-24T12:58:23;6.82;;;3.10;;
34200;SDS011;20469;55.638;37.670;2023-04-24T13:00:50;4.50;;;2.70;;
34200;SDS011;20469;55.638;37.670;2023-04-24T13:03:18;8.65;;;3.08;;
34200;SDS011;20469;55.638;37.670;2023-04-24T13:05:46;6.90;;;3.15;;
34200;SDS011;20469;55.638;37.670;2023-04-24T13:08:13;7.00;;;3.03;;
34200;SDS011;20469;55.638;37.670;2023-04-24T13:10:41;4.10;;;2.88;;
34200;SDS011;20469;55.638;37.670;2023-04-24T13:13:08;5.95;;;2.92;;
34200;SDS011;20469;55.638;37.670;2023-04-24T13:15:35;4.88;;;2.97;;
34200;SDS011;20469;55.638;37.670;2023-04-24T13:18:03;6.68;;;3.38;;
34200;SDS011;20469;55.638;37.670;2023-04-24T13:20:30;6.25;;;3.28;;
34200;SDS011;20469;55.638;37.670;2023-04-24T13:22:57;6.50;;;2.88;;
34200;SDS011;20469;55.638;37.670;2023-04-24T13:25:24;6.05;;;3.28;;
34200;SDS011;20469;55.638;37.670;2023-04-24T13:27:52;4.97;;;3.00;;
34200;SDS011;20469;55.638;37.670;2023-04-24T13:30:20;9.27;;;3.38;;
34200;SDS011;20469;55.638;37.670;2023-04-24T13:32:47;4.78;;;2.90;;
34200;SDS011;20469;55.638;37.670;2023-04-24T13:35:14;9.95;;;6.38;;
34200;SDS011;20469;55.638;37.670;2023-04-24T13:37:41;8.05;;;3.30;;
34200;SDS011;20469;55.638;37.670;2023-04-24T13:40:09;10.48;;;3.47;;
34200;SDS011;20469;55.638;37.670;2023-04-24T13:42:36;6.07;;;3.25;;
34200;SDS011;20469;55.638;37.670;2023-04-24T13:45:04;8.18;;;3.00;;
34200;SDS011;20469;55.638;37.670;2023-04-24T13:47:49;4.35;;;3.00;;
34200;SDS011;20469;55.638;37.670;2023-04-24T13:50:18;4.63;;;3.40;;
34200;SDS011;20469;55.638;37.670;2023-04-24T13:52:45;3.83;;;3.20;;
34200;SDS011;20469;55.638;37.670;2023-04-24T13:55:12;10.80;;;3.00;;
34200;SDS011;20469;55.638;37.670;2023-04-24T13:57:40;4.50;;;2.97;;
34200;SDS011;20469;55.638;37.670;2023-04-24T14:00:07;6.13;;;3.35;;
34200;SDS011;20469;55.638;37.670;2023-04-24T14:02:37;6.45;;;3.28;;
34200;SDS011;20469;55.638;37.670;2023-04-24T14:05:04;10.02;;;3.20;;
34200;SDS011;20469;55.638;37.670;2023-04-24T14:07:33;5.60;;;3.10;;
34200;SDS011;20469;55.638;37.670;2023-04-24T14:10:00;6.25;;;3.03;;
34200;SDS011;20469;55.638;37.670;2023-04-24T14:12:30;3.88;;;2.90;;
34200;SDS011;20469;55.638;37.670;2023-04-24T14:14:57;6.03;;;2.97;;
34200;SDS011;20469;55.638;37.670;2023-04-24T14:17:24;5.72;;;2.95;;
34200;SDS011;20469;55.638;37.670;2023-04-24T14:19:51;4.90;;;3.28;;
34200;SDS011;20469;55.638;37.670;2023-04-24T14:22:19;7.70;;;3.00;;
34200;SDS011;20469;55.638;37.670;2023-04-24T14:24:46;8.95;;;3.33;;
34200;SDS011;20469;55.638;37.670;2023-04-24T14:27:14;6.50;;;3.10;;
34200;SDS011;20469;55.638;37.670;2023-04-24T14:29:41;7.35;;;3.05;;
34200;SDS011;20469;55.638;37.670;2023-04-24T14:32:08;5.13;;;3.60;;
34200;SDS011;20469;55.638;37.670;2023-04-24T14:34:35;8.38;;;4.80;;
34200;SDS011;20469;55.638;37.670;2023-04-24T14:37:02;7.13;;;3.67;;
34200;SDS011;20469;55.638;37.670;2023-04-24T14:39:29;8.43;;;3.13;;
34200;SDS011;20469;55.638;37.670;2023-04-24T14:41:56;6.25;;;2.75;;
34200;SDS011;20469;55.638;37.670;2023-04-24T14:44:23;6.70;;;2.63;;
34200;SDS011;20469;55.638;37.670;2023-04-24T14:46:51;12.65;;;3.40;;
34200;SDS011;20469;55.638;37.670;2023-04-24T14:49:18;5.40;;;3.17;;